Terminal Aerodrome Forecast
Issued by NWS

Home | Current Version | Previous Version | Text Only | Print | Product List | Glossary On
Versions: 1 2 3 4 5 6 7 8 9 10 11 12 13 14
000
FTUS45 KRIW 051126
TAFBPI
TAF
KBPI 051126Z 0512/0612 30022G32KT 6SM -SN BLSN SCT020 BKN040
      TEMPO 0512/0514 3SM -SN BLSN OVC020
     FM051500 33014G22KT P6SM FEW040
     FM052300 33011KT P6SM SKC=

USA.gov is the U.S. government's official web portal to all federal, state and local government web resources and services.